createdAt,value
2023-05-06T00:01:45.817Z,94.00
2023-05-06T00:03:48.824Z,93.90
2023-05-06T00:05:51.912Z,93.80
2023-05-06T00:07:56.094Z,94.00
2023-05-06T00:09:58.857Z,94.10
2023-05-06T00:12:01.653Z,94.10
2023-05-06T00:14:04.531Z,94.30
2023-05-06T00:16:07.632Z,94.20
2023-05-06T00:18:10.554Z,94.20
2023-05-06T00:20:14.743Z,94.20
2023-05-06T00:22:17.585Z,94.30
2023-05-06T00:24:21.721Z,94.70
2023-05-06T00:26:24.501Z,95.10
2023-05-06T00:28:27.425Z,95.40
2023-05-06T00:30:31.274Z,95.70
2023-05-06T00:32:34.164Z,96.10
2023-05-06T00:34:37.261Z,96.60
2023-05-06T00:36:40.169Z,96.70
2023-05-06T00:38:43.022Z,96.80
2023-05-06T00:40:47.191Z,97.00
2023-05-06T00:42:50.013Z,97.40
2023-05-06T00:44:53.387Z,97.60
2023-05-06T00:46:57.052Z,97.70
2023-05-06T00:48:59.989Z,97.80
2023-05-06T00:51:02.936Z,97.90
2023-05-06T00:53:06.921Z,97.90
2023-05-06T00:55:10.704Z,97.90
2023-05-06T00:57:15.020Z,98.00
2023-05-06T00:59:17.911Z,98.00
2023-05-06T01:01:22.796Z,98.00
2023-05-06T01:03:25.998Z,98.00
2023-05-06T01:05:41.429Z,97.90
2023-05-06T01:07:52.481Z,98.00
2023-05-06T01:10:03.526Z,98.10
2023-05-06T01:12:10.481Z,98.00
2023-05-06T01:14:26.791Z,98.10
2023-05-06T01:16:31.808Z,98.30
2023-05-06T01:18:34.746Z,98.30
2023-05-06T01:20:38.735Z,98.50
2023-05-06T01:22:41.768Z,98.50
2023-05-06T01:24:46.999Z,98.40
2023-05-06T01:26:49.815Z,98.50
2023-05-06T01:28:52.593Z,98.50
2023-05-06T01:31:01.269Z,98.30
2023-05-06T01:33:08.579Z,98.40
2023-05-06T01:35:18.238Z,98.50
2023-05-06T01:37:26.623Z,98.30
2023-05-06T01:39:32.646Z,98.30
2023-05-06T01:41:39.831Z,98.30
2023-05-06T01:43:45.238Z,98.50
2023-05-06T01:45:53.419Z,98.50
2023-05-06T01:47:57.852Z,98.40
2023-05-06T01:50:01.145Z,98.20
2023-05-06T01:52:04.199Z,98.20
2023-05-06T01:54:07.149Z,98.10
2023-05-06T01:56:09.961Z,98.30
2023-05-06T01:58:14.155Z,98.30
2023-05-06T02:00:17.483Z,98.40
2023-05-06T02:02:20.421Z,98.40
2023-05-06T02:04:23.200Z,98.30
2023-05-06T02:06:26.055Z,98.60
2023-05-06T02:08:29.239Z,98.60
2023-05-06T02:10:32.096Z,98.70
2023-05-06T02:12:34.984Z,98.50
2023-05-06T02:14:39.239Z,98.50
2023-05-06T02:16:42.022Z,98.50
2023-05-06T02:18:45.840Z,98.40
2023-05-06T02:20:48.692Z,98.60
2023-05-06T02:22:51.495Z,98.60
2023-05-06T02:24:54.223Z,98.50
2023-05-06T02:26:57.063Z,98.60
2023-05-06T02:28:59.867Z,98.60
2023-05-06T02:31:04.086Z,98.40
2023-05-06T02:33:06.929Z,98.30
2023-05-06T02:35:10.775Z,98.40
2023-05-06T02:37:13.861Z,98.40
2023-05-06T02:39:16.671Z,98.60
2023-05-06T02:41:19.488Z,98.60
2023-05-06T02:43:23.079Z,98.60
2023-05-06T02:45:25.948Z,98.40
2023-05-06T02:47:30.207Z,98.60
2023-05-06T02:49:33.091Z,98.50
2023-05-06T02:51:36.388Z,98.60
2023-05-06T02:53:39.160Z,98.90
2023-05-06T02:55:42.101Z,98.80
2023-05-06T02:57:44.877Z,98.70
2023-05-06T02:59:47.674Z,99.00
2023-05-06T03:01:50.507Z,98.90
2023-05-06T03:03:54.700Z,98.90
2023-05-06T03:05:57.523Z,98.70
2023-05-06T03:08:00.513Z,98.20
2023-05-06T03:10:04.042Z,98.60
2023-05-06T03:12:07.305Z,98.70
2023-05-06T03:14:10.149Z,98.60
2023-05-06T03:16:14.217Z,98.60
2023-05-06T03:18:16.989Z,98.50
2023-05-06T03:20:21.670Z,98.40
2023-05-06T03:22:24.501Z,98.20
2023-05-06T03:24:27.344Z,98.50
2023-05-06T03:26:30.601Z,98.30
2023-05-06T03:28:33.576Z,98.40
2023-05-06T03:30:36.415Z,98.30
2023-05-06T03:32:39.643Z,98.40
2023-05-06T03:34:42.470Z,98.50
2023-05-06T03:36:46.776Z,98.50
2023-05-06T03:38:49.566Z,98.60
2023-05-06T03:40:52.428Z,98.60
2023-05-06T03:42:55.256Z,98.80
2023-05-06T03:44:58.052Z,98.60
2023-05-06T03:47:00.968Z,98.80
2023-05-06T03:49:03.771Z,98.80
2023-05-06T03:51:06.830Z,98.70
2023-05-06T03:53:11.155Z,98.80
2023-05-06T03:55:13.956Z,98.30
2023-05-06T03:57:16.781Z,98.50
2023-05-06T03:59:19.598Z,98.20
2023-05-06T04:01:22.501Z,97.80
2023-05-06T04:03:25.372Z,98.10
2023-05-06T04:05:28.291Z,98.20
2023-05-06T04:07:31.087Z,98.40
2023-05-06T04:09:35.234Z,98.70
2023-05-06T04:11:38.054Z,98.50
2023-05-06T04:13:41.012Z,98.40
2023-05-06T04:15:43.956Z,98.30
2023-05-06T04:17:49.224Z,98.40
2023-05-06T04:19:53.831Z,98.50
2023-05-06T04:21:56.637Z,98.40
2023-05-06T04:23:59.414Z,98.10
2023-05-06T04:26:03.532Z,98.40
2023-05-06T04:28:06.667Z,98.50
2023-05-06T04:30:10.621Z,98.60
2023-05-06T04:32:13.651Z,98.80
2023-05-06T04:34:16.620Z,98.50
2023-05-06T04:36:19.756Z,98.40
2023-05-06T04:38:23.656Z,98.50
2023-05-06T04:40:28.563Z,98.60
2023-05-06T04:42:34.023Z,98.80
2023-05-06T04:44:36.786Z,98.70
2023-05-06T04:46:39.595Z,98.20
2023-05-06T04:48:42.903Z,98.20
2023-05-06T04:50:46.631Z,98.60
2023-05-06T04:52:49.466Z,98.50
2023-05-06T04:54:52.242Z,98.30
2023-05-06T04:56:55.663Z,98.30
2023-05-06T04:58:59.766Z,98.40
2023-05-06T05:01:05.239Z,98.40
2023-05-06T05:03:08.241Z,98.40
2023-05-06T05:05:11.772Z,98.00
2023-05-06T05:07:14.814Z,98.10
2023-05-06T05:09:17.623Z,98.20
2023-05-06T05:11:20.431Z,98.10
2023-05-06T05:13:23.180Z,97.90
2023-05-06T05:15:27.323Z,97.40
2023-05-06T05:17:30.198Z,97.10
2023-05-06T05:19:33.021Z,97.40
2023-05-06T05:21:35.768Z,97.10
2023-05-06T05:23:38.669Z,97.20
2023-05-06T05:25:41.730Z,97.00
2023-05-06T05:27:44.766Z,97.30
2023-05-06T05:29:47.580Z,97.70
2023-05-06T05:31:51.681Z,97.60
2023-05-06T05:33:54.549Z,97.30
2023-05-06T05:35:58.400Z,97.90
2023-05-06T05:38:01.191Z,97.60
2023-05-06T05:40:04.592Z,97.10
2023-05-06T05:42:07.399Z,97.40
2023-05-06T05:44:10.270Z,97.50
2023-05-06T05:46:13.265Z,97.60
2023-05-06T05:48:17.491Z,97.20
2023-05-06T05:50:20.379Z,97.10
2023-05-06T05:52:23.172Z,97.40
2023-05-06T05:54:25.954Z,97.50
2023-05-06T05:56:28.747Z,97.50
2023-05-06T05:58:31.555Z,97.50
2023-05-06T06:00:34.371Z,97.30
2023-05-06T06:02:37.223Z,97.10
2023-05-06T06:04:41.458Z,97.40
2023-05-06T06:06:44.408Z,97.40
2023-05-06T06:08:47.207Z,97.60
2023-05-06T06:10:49.971Z,97.50
2023-05-06T06:12:52.879Z,97.00
2023-05-06T06:14:55.725Z,96.30
2023-05-06T06:16:58.686Z,96.80
2023-05-06T06:19:01.523Z,96.90
2023-05-06T06:21:06.067Z,96.20
2023-05-06T06:23:08.856Z,96.10
2023-05-06T06:25:11.803Z,95.60
2023-05-06T06:27:14.830Z,95.60
2023-05-06T06:29:17.618Z,95.50
2023-05-06T06:31:20.537Z,95.30
2023-05-06T06:33:23.385Z,95.20
2023-05-06T06:35:26.919Z,95.70
2023-05-06T06:37:31.084Z,95.80
2023-05-06T06:39:33.934Z,95.20
2023-05-06T06:41:36.688Z,94.90
2023-05-06T06:43:39.530Z,94.80
2023-05-06T06:45:42.343Z,94.90
2023-05-06T06:47:45.192Z,94.60
2023-05-06T06:49:48.066Z,93.50
2023-05-06T06:51:52.478Z,94.50
2023-05-06T06:53:56.882Z,94.30
2023-05-06T06:55:59.679Z,92.30
2023-05-06T06:58:02.567Z,92.50
2023-05-06T07:00:05.777Z,92.50
2023-05-06T07:02:08.586Z,92.70
2023-05-06T07:04:11.404Z,92.90
2023-05-06T07:06:14.198Z,93.00
2023-05-06T07:08:17.614Z,93.40
2023-05-06T07:10:22.006Z,92.80
2023-05-06T07:12:26.716Z,93.10
2023-05-06T07:14:29.493Z,93.20
2023-05-06T07:16:32.282Z,93.30
2023-05-06T07:18:35.228Z,93.30
2023-05-06T07:20:38.058Z,91.80
2023-05-06T07:22:41.355Z,90.80
2023-05-06T07:24:44.222Z,92.30
2023-05-06T07:26:48.634Z,92.10
2023-05-06T07:28:51.468Z,91.20
2023-05-06T07:30:54.473Z,90.10
2023-05-06T07:32:57.321Z,91.50
2023-05-06T07:35:00.591Z,91.40
2023-05-06T07:37:03.834Z,91.00
2023-05-06T07:39:06.837Z,90.70
2023-05-06T07:41:09.604Z,90.10
2023-05-06T07:43:13.714Z,87.10
2023-05-06T07:45:16.547Z,88.00
2023-05-06T07:47:28.053Z,87.00
2023-05-06T07:49:33.217Z,87.90
2023-05-06T07:51:36.143Z,88.70
2023-05-06T07:53:40.146Z,87.00
2023-05-06T07:55:42.893Z,87.60
2023-05-06T07:57:46.095Z,89.00
2023-05-06T07:59:51.473Z,88.10
2023-05-06T08:01:54.272Z,87.70
2023-05-06T08:03:57.095Z,86.60
2023-05-06T08:06:00.245Z,85.10
2023-05-06T08:08:03.152Z,87.30
2023-05-06T08:10:07.070Z,87.20
2023-05-06T08:12:09.889Z,86.90
2023-05-06T08:14:12.740Z,85.80
2023-05-06T08:16:17.151Z,87.10
2023-05-06T08:18:22.867Z,89.60
2023-05-06T08:20:26.181Z,87.50
2023-05-06T08:22:28.990Z,85.60
2023-05-06T08:24:31.804Z,85.40
2023-05-06T08:26:34.671Z,85.10
2023-05-06T08:28:37.477Z,85.90
2023-05-06T08:30:40.284Z,85.30
2023-05-06T08:32:44.666Z,85.10
2023-05-06T08:34:47.492Z,85.40
2023-05-06T08:36:50.495Z,86.20
2023-05-06T08:38:53.271Z,82.50
2023-05-06T08:40:58.561Z,81.30
2023-05-06T08:43:03.739Z,82.60
2023-05-06T08:45:08.159Z,83.50
2023-05-06T08:47:11.402Z,82.10
2023-05-06T08:49:16.348Z,83.50
2023-05-06T08:51:19.630Z,83.30
2023-05-06T08:53:22.992Z,78.80
2023-05-06T08:55:28.031Z,80.50
2023-05-06T08:57:32.164Z,80.40
2023-05-06T08:59:35.159Z,79.30
2023-05-06T09:01:38.661Z,80.00
2023-05-06T09:03:41.618Z,81.60
2023-05-06T09:05:45.830Z,79.30
2023-05-06T09:07:48.632Z,80.80
2023-05-06T09:09:52.465Z,78.80
2023-05-06T09:11:57.473Z,81.00
2023-05-06T09:14:12.144Z,79.60
2023-05-06T09:16:29.342Z,79.90
2023-05-06T09:18:32.794Z,78.70
2023-05-06T09:20:35.832Z,79.00
2023-05-06T09:22:40.686Z,79.40
2023-05-06T09:24:43.760Z,76.90
2023-05-06T09:26:48.145Z,79.20
2023-05-06T09:28:52.224Z,79.10
2023-05-06T09:30:55.531Z,78.20
2023-05-06T09:32:58.433Z,78.60
2023-05-06T09:35:01.729Z,76.00
2023-05-06T09:37:04.548Z,74.50
2023-05-06T09:39:09.811Z,77.50
2023-05-06T09:41:14.624Z,79.60
2023-05-06T09:43:17.386Z,75.00
2023-05-06T09:45:20.649Z,75.00
2023-05-06T09:47:24.862Z,77.30
2023-05-06T09:49:27.857Z,77.10
2023-05-06T09:51:32.503Z,77.60
2023-05-06T09:53:37.145Z,77.00
2023-05-06T09:55:42.295Z,75.10
2023-05-06T09:57:45.696Z,76.70
2023-05-06T09:59:49.337Z,76.80
2023-05-06T10:01:52.823Z,75.80
2023-05-06T10:03:56.271Z,76.60
2023-05-06T10:06:01.031Z,77.40
2023-05-06T10:08:04.813Z,75.50
2023-05-06T10:10:11.005Z,77.10
2023-05-06T10:12:15.497Z,75.40
2023-05-06T10:14:19.212Z,75.40
2023-05-06T10:16:22.791Z,76.30
2023-05-06T10:18:29.966Z,73.40
2023-05-06T10:20:36.508Z,75.00
2023-05-06T10:22:45.556Z,74.70
2023-05-06T10:24:57.119Z,77.20
2023-05-06T10:27:03.214Z,74.00
2023-05-06T10:29:10.137Z,74.40
2023-05-06T10:31:14.734Z,73.10
2023-05-06T10:33:18.185Z,74.30
2023-05-06T10:35:30.857Z,73.50
2023-05-06T10:37:35.410Z,71.30
2023-05-06T10:39:40.315Z,72.40
2023-05-06T10:41:44.871Z,72.10
2023-05-06T10:43:49.205Z,72.40
2023-05-06T10:46:03.972Z,73.00
2023-05-06T10:48:10.569Z,73.20
2023-05-06T10:50:21.096Z,71.10
2023-05-06T10:52:23.951Z,70.90
2023-05-06T10:54:26.734Z,70.10
2023-05-06T10:56:31.259Z,71.30
2023-05-06T10:58:37.303Z,70.50
2023-05-06T11:00:41.020Z,71.40
2023-05-06T11:02:47.572Z,70.60
2023-05-06T11:05:00.539Z,72.20
2023-05-06T11:07:09.332Z,71.30
2023-05-06T11:09:19.399Z,67.70
2023-05-06T11:11:54.471Z,69.60
2023-05-06T11:14:13.900Z,68.70
2023-05-06T11:16:48.050Z,68.60
2023-05-06T11:18:52.898Z,69.90
2023-05-06T11:21:38.703Z,68.40
2023-05-06T11:24:07.245Z,68.80
2023-05-06T11:26:11.476Z,69.20
2023-05-06T11:28:15.824Z,70.80
2023-05-06T11:30:18.604Z,68.00
2023-05-06T11:32:24.035Z,69.60
2023-05-06T11:34:29.658Z,69.60
2023-05-06T11:36:33.609Z,68.30
2023-05-06T11:38:43.439Z,65.60
2023-05-06T11:40:46.638Z,66.80
2023-05-06T11:42:49.376Z,67.70
2023-05-06T11:44:54.894Z,67.60
2023-05-06T11:46:59.023Z,69.60
2023-05-06T11:49:01.909Z,69.00
2023-05-06T11:51:06.094Z,69.00
2023-05-06T11:53:10.005Z,68.20
2023-05-06T11:55:12.901Z,67.00
2023-05-06T11:57:15.719Z,67.10
2023-05-06T11:59:19.749Z,66.80
2023-05-06T12:01:22.545Z,66.40
2023-05-06T12:03:26.830Z,67.60
2023-05-06T12:05:29.880Z,65.70
2023-05-06T12:07:34.131Z,67.10
2023-05-06T12:09:37.961Z,65.80
2023-05-06T12:11:44.328Z,64.60
2023-05-06T12:13:47.922Z,66.50
2023-05-06T12:15:51.087Z,64.40
2023-05-06T12:17:54.047Z,64.90
2023-05-06T12:19:57.811Z,63.60
2023-05-06T12:22:15.834Z,65.30
2023-05-06T12:24:28.147Z,64.50
2023-05-06T12:26:44.157Z,64.40
2023-05-06T12:28:47.092Z,65.60
2023-05-06T12:30:49.909Z,63.30
2023-05-06T12:33:03.092Z,65.70
2023-05-06T12:35:07.532Z,64.30
2023-05-06T12:37:10.457Z,64.30
2023-05-06T12:39:14.147Z,63.90
2023-05-06T12:41:18.296Z,60.30
2023-05-06T12:43:30.069Z,58.80
2023-05-06T12:45:33.078Z,60.20
2023-05-06T12:47:36.145Z,60.00
2023-05-06T12:49:49.710Z,61.00
2023-05-06T12:52:07.326Z,60.40
2023-05-06T12:54:30.734Z,60.60
2023-05-06T12:56:35.031Z,59.20
2023-05-06T12:58:39.602Z,58.60
2023-05-06T13:00:42.432Z,56.50
2023-05-06T13:02:45.565Z,56.50
2023-05-06T13:04:48.536Z,55.40
2023-05-06T13:06:51.809Z,56.60
2023-05-06T13:08:54.630Z,58.00
2023-05-06T13:10:57.544Z,57.00
2023-05-06T13:13:01.695Z,57.90
2023-05-06T13:15:05.449Z,57.80
2023-05-06T13:17:08.598Z,59.00
2023-05-06T13:19:21.123Z,59.00
2023-05-06T13:21:34.150Z,58.80
2023-05-06T13:23:38.110Z,57.30
2023-05-06T13:25:52.040Z,57.10
2023-05-06T13:28:05.063Z,57.50
2023-05-06T13:30:09.754Z,57.20
2023-05-06T13:32:12.816Z,56.20
2023-05-06T13:34:15.680Z,55.00
2023-05-06T13:36:18.575Z,55.10
2023-05-06T13:38:21.802Z,56.80
2023-05-06T13:40:24.789Z,56.30
2023-05-06T13:42:27.601Z,56.30
2023-05-06T13:44:32.228Z,58.20
2023-05-06T13:46:35.108Z,57.70
2023-05-06T13:48:37.887Z,55.50
2023-05-06T13:50:42.702Z,56.00
2023-05-06T13:52:45.459Z,55.30
2023-05-06T13:54:48.269Z,55.00
2023-05-06T13:56:51.179Z,56.60
2023-05-06T13:58:54.123Z,56.20
2023-05-06T14:00:58.268Z,55.90
2023-05-06T14:03:01.344Z,56.80
2023-05-06T14:05:04.491Z,56.30
2023-05-06T14:07:07.443Z,56.00
2023-05-06T14:09:11.805Z,54.10
2023-05-06T14:11:14.779Z,55.40
2023-05-06T14:13:17.597Z,55.80
2023-05-06T14:15:20.577Z,53.90
2023-05-06T14:17:24.746Z,54.20
2023-05-06T14:19:27.514Z,53.80
2023-05-06T14:21:30.594Z,55.50
2023-05-06T14:23:33.517Z,51.30
2023-05-06T14:25:36.758Z,51.80
2023-05-06T14:27:39.745Z,48.40
2023-05-06T14:29:43.121Z,41.10
2023-05-06T14:31:46.142Z,40.90
2023-05-06T14:33:50.317Z,38.00
2023-05-06T14:35:53.162Z,37.70
2023-05-06T14:37:56.082Z,34.20
2023-05-06T14:39:59.034Z,34.40
2023-05-06T14:42:01.891Z,30.10
2023-05-06T14:44:04.833Z,32.60
2023-05-06T14:46:08.015Z,32.30
2023-05-06T14:48:11.403Z,29.20
2023-05-06T14:50:15.591Z,30.20
2023-05-06T14:52:18.326Z,32.70
2023-05-06T14:54:21.167Z,34.30
2023-05-06T14:56:23.990Z,36.90
2023-05-06T14:58:26.823Z,36.80
2023-05-06T15:00:29.593Z,34.00
2023-05-06T15:02:32.542Z,32.50
2023-05-06T15:04:35.460Z,27.10
2023-05-06T15:06:39.624Z,28.10
2023-05-06T15:08:42.389Z,28.80
2023-05-06T15:10:45.314Z,28.10
2023-05-06T15:12:48.445Z,28.80
2023-05-06T15:14:51.279Z,27.80
2023-05-06T15:16:57.159Z,27.00
2023-05-06T15:19:00.012Z,26.40
2023-05-06T15:21:02.839Z,26.40
2023-05-06T15:23:07.009Z,27.10
2023-05-06T15:25:16.709Z,27.30
2023-05-06T15:27:22.432Z,26.50
2023-05-06T15:29:25.536Z,28.00
2023-05-06T15:31:28.338Z,28.00
2023-05-06T15:33:31.284Z,27.30
2023-05-06T15:35:34.084Z,26.30
2023-05-06T15:37:37.091Z,27.10
2023-05-06T15:39:41.164Z,28.00
2023-05-06T15:41:43.977Z,29.00
2023-05-06T15:43:46.873Z,28.90
2023-05-06T15:45:49.651Z,31.20
2023-05-06T15:47:52.657Z,33.10
2023-05-06T15:49:55.779Z,33.70
2023-05-06T15:52:00.666Z,34.20
2023-05-06T15:54:03.671Z,35.40
2023-05-06T15:56:17.725Z,35.70
2023-05-06T15:58:32.019Z,36.20
2023-05-06T16:00:34.866Z,37.50
2023-05-06T16:02:37.843Z,36.40
2023-05-06T16:04:41.142Z,38.60
2023-05-06T16:06:44.050Z,39.50
2023-05-06T16:08:46.867Z,40.50
2023-05-06T16:10:49.857Z,40.60
2023-05-06T16:12:54.494Z,41.50
2023-05-06T16:14:57.628Z,42.80
2023-05-06T16:17:00.622Z,42.10
2023-05-06T16:19:03.442Z,36.80
2023-05-06T16:21:07.539Z,33.30
2023-05-06T16:23:10.629Z,32.50
2023-05-06T16:25:13.553Z,30.40
2023-05-06T16:27:16.917Z,29.60
2023-05-06T16:29:21.089Z,28.70
2023-05-06T16:31:23.989Z,29.90
2023-05-06T16:33:26.839Z,31.00
2023-05-06T16:35:30.018Z,31.00
2023-05-06T16:37:32.753Z,30.80
2023-05-06T16:39:35.471Z,32.50
2023-05-06T16:41:38.258Z,32.70
2023-05-06T16:43:41.076Z,32.40
2023-05-06T16:45:45.800Z,33.10
2023-05-06T16:47:49.208Z,32.20
2023-05-06T16:49:52.000Z,32.70
2023-05-06T16:51:57.132Z,33.20
2023-05-06T16:53:59.937Z,34.30
2023-05-06T16:56:04.001Z,34.80
2023-05-06T16:58:06.794Z,35.60
2023-05-06T17:00:11.970Z,35.80
2023-05-06T17:02:16.395Z,36.10
2023-05-06T17:04:19.270Z,36.80
2023-05-06T17:06:24.640Z,37.60
2023-05-06T17:08:27.533Z,38.60
2023-05-06T17:10:30.438Z,39.80
2023-05-06T17:12:33.608Z,40.50
2023-05-06T17:14:36.728Z,41.40
2023-05-06T17:16:39.818Z,42.10
2023-05-06T17:18:44.026Z,43.10
2023-05-06T17:20:54.984Z,43.80
2023-05-06T17:22:58.317Z,43.90
2023-05-06T17:25:01.099Z,44.70
2023-05-06T17:27:04.279Z,44.70
2023-05-06T17:29:08.650Z,44.50
2023-05-06T17:31:11.972Z,44.70
2023-05-06T17:33:14.819Z,45.00
2023-05-06T17:35:20.179Z,45.40
2023-05-06T17:37:22.986Z,46.10
2023-05-06T17:39:26.493Z,46.10
2023-05-06T17:41:29.431Z,46.40
2023-05-06T17:43:33.640Z,46.60
2023-05-06T17:45:36.564Z,47.10
2023-05-06T17:47:39.475Z,47.30
2023-05-06T17:49:42.798Z,47.80
2023-05-06T17:51:47.566Z,48.00
2023-05-06T17:53:50.509Z,48.60
2023-05-06T17:55:53.328Z,49.10
2023-05-06T17:57:56.143Z,49.50
2023-05-06T17:59:58.917Z,50.30
2023-05-06T18:02:01.974Z,50.50
2023-05-06T18:04:04.966Z,50.90
2023-05-06T18:06:08.045Z,51.40
2023-05-06T18:08:12.609Z,51.70
2023-05-06T18:10:15.465Z,52.40
2023-05-06T18:12:18.278Z,52.30
2023-05-06T18:14:21.193Z,53.00
2023-05-06T18:16:24.172Z,53.50
2023-05-06T18:18:27.112Z,53.70
2023-05-06T18:20:30.011Z,54.30
2023-05-06T18:22:32.808Z,54.90
2023-05-06T18:24:37.288Z,55.40
2023-05-06T18:26:45.215Z,55.20
2023-05-06T18:28:48.870Z,55.50
2023-05-06T18:30:51.685Z,56.00
2023-05-06T18:32:56.532Z,57.20
2023-05-06T18:34:59.714Z,57.10
2023-05-06T18:37:02.958Z,57.90
2023-05-06T18:39:06.032Z,58.10
2023-05-06T18:41:10.150Z,58.20
2023-05-06T18:43:13.011Z,58.90
2023-05-06T18:45:16.172Z,58.80
2023-05-06T18:47:19.609Z,59.00
2023-05-06T18:49:23.158Z,59.10
2023-05-06T18:51:26.347Z,59.80
2023-05-06T18:53:29.091Z,60.00
2023-05-06T18:55:31.933Z,60.00
2023-05-06T18:57:36.145Z,59.80
2023-05-06T18:59:38.944Z,60.20
2023-05-06T19:01:41.742Z,61.00
2023-05-06T19:03:44.592Z,61.00
2023-05-06T19:05:47.578Z,61.60
2023-05-06T19:07:50.365Z,62.40
2023-05-06T19:09:53.190Z,62.40
2023-05-06T19:11:56.190Z,62.90
2023-05-06T19:14:00.386Z,62.90
2023-05-06T19:16:03.217Z,64.30
2023-05-06T19:18:06.986Z,64.10
2023-05-06T19:20:11.138Z,64.60
2023-05-06T19:22:13.947Z,64.60
2023-05-06T19:24:16.840Z,64.80
2023-05-06T19:26:19.648Z,64.70
2023-05-06T19:28:22.697Z,65.30
2023-05-06T19:30:27.935Z,65.00
2023-05-06T19:32:32.843Z,66.00
2023-05-06T19:34:35.861Z,66.30
2023-05-06T19:36:38.681Z,66.30
2023-05-06T19:38:41.505Z,66.80
2023-05-06T19:40:44.402Z,66.50
2023-05-06T19:42:47.778Z,66.60
2023-05-06T19:44:50.821Z,67.30
2023-05-06T19:46:55.342Z,67.50
2023-05-06T19:48:58.481Z,67.50
2023-05-06T19:51:01.329Z,67.70
2023-05-06T19:53:04.338Z,67.80
2023-05-06T19:55:08.282Z,68.60
2023-05-06T19:57:11.171Z,68.60
2023-05-06T19:59:14.073Z,68.60
2023-05-06T20:01:17.180Z,68.80
2023-05-06T20:03:21.768Z,69.10
2023-05-06T20:05:24.842Z,69.50
2023-05-06T20:07:27.830Z,69.80
2023-05-06T20:09:30.803Z,70.70
2023-05-06T20:11:33.679Z,70.90
2023-05-06T20:13:36.559Z,71.20
2023-05-06T20:15:39.350Z,71.30
2023-05-06T20:17:42.171Z,71.30
2023-05-06T20:19:46.985Z,71.40
2023-05-06T20:21:49.815Z,72.10
2023-05-06T20:23:53.228Z,71.80
2023-05-06T20:25:56.249Z,72.70
2023-05-06T20:28:00.847Z,72.80
2023-05-06T20:30:04.209Z,73.10
2023-05-06T20:32:07.696Z,73.30
2023-05-06T20:34:10.582Z,73.70
2023-05-06T20:36:15.881Z,73.90
2023-05-06T20:38:19.455Z,73.90
2023-05-06T20:40:22.690Z,73.90
2023-05-06T20:42:25.826Z,74.30
2023-05-06T20:44:28.568Z,74.20
2023-05-06T20:46:32.930Z,74.50
2023-05-06T20:48:36.037Z,74.50
2023-05-06T20:50:38.920Z,74.70
2023-05-06T20:52:43.665Z,74.80
2023-05-06T20:54:46.930Z,74.60
2023-05-06T20:56:49.684Z,74.90
2023-05-06T20:58:53.077Z,75.00
2023-05-06T21:00:57.178Z,75.20
2023-05-06T21:03:00.355Z,75.40
2023-05-06T21:05:03.244Z,75.90
2023-05-06T21:07:05.993Z,75.60
2023-05-06T21:09:10.169Z,75.70
2023-05-06T21:11:12.925Z,76.00
2023-05-06T21:13:15.890Z,75.80
2023-05-06T21:15:18.752Z,76.30
2023-05-06T21:17:21.663Z,76.20
2023-05-06T21:19:24.499Z,76.60
2023-05-06T21:21:30.523Z,76.40
2023-05-06T21:23:35.299Z,76.40
2023-05-06T21:25:39.461Z,76.30
2023-05-06T21:27:42.224Z,76.90
2023-05-06T21:29:45.005Z,76.90
2023-05-06T21:31:47.955Z,77.20
2023-05-06T21:33:55.489Z,77.10
2023-05-06T21:35:58.282Z,77.20
2023-05-06T21:38:01.210Z,77.30
2023-05-06T21:40:04.883Z,77.40
2023-05-06T21:42:09.025Z,77.80
2023-05-06T21:44:11.757Z,77.60
2023-05-06T21:46:14.596Z,77.90
2023-05-06T21:48:17.476Z,78.10
2023-05-06T21:50:20.458Z,78.20
2023-05-06T21:52:23.262Z,78.20
2023-05-06T21:54:26.370Z,78.10
2023-05-06T21:56:29.222Z,78.10
2023-05-06T21:58:33.396Z,78.20
2023-05-06T22:00:36.411Z,78.30
2023-05-06T22:02:39.550Z,78.40
2023-05-06T22:04:42.556Z,78.60
2023-05-06T22:06:45.405Z,78.70
2023-05-06T22:08:48.197Z,78.90
2023-05-06T22:10:51.025Z,79.10
2023-05-06T22:12:53.772Z,79.20
2023-05-06T22:14:58.000Z,79.20
2023-05-06T22:17:01.612Z,79.30
2023-05-06T22:19:05.510Z,79.40
2023-05-06T22:21:09.640Z,79.20
2023-05-06T22:23:12.682Z,79.40
2023-05-06T22:25:15.505Z,79.40
2023-05-06T22:27:18.258Z,79.90
2023-05-06T22:29:20.968Z,80.10
2023-05-06T22:31:25.280Z,80.30
2023-05-06T22:33:28.202Z,80.40
2023-05-06T22:35:31.021Z,80.50
2023-05-06T22:37:33.788Z,80.40
2023-05-06T22:39:36.695Z,80.70
2023-05-06T22:41:39.547Z,81.00
2023-05-06T22:43:42.313Z,81.00
2023-05-06T22:45:45.207Z,81.20
2023-05-06T22:47:49.364Z,81.20
2023-05-06T22:49:52.249Z,81.50
2023-05-06T22:51:55.122Z,81.60
2023-05-06T22:53:57.829Z,81.60
2023-05-06T22:56:00.843Z,81.80
2023-05-06T22:58:03.644Z,81.50
2023-05-06T23:00:08.688Z,81.80
2023-05-06T23:02:11.596Z,81.90
2023-05-06T23:04:15.844Z,81.90
2023-05-06T23:06:18.846Z,82.00
2023-05-06T23:08:21.771Z,81.90
2023-05-06T23:10:24.567Z,82.00
2023-05-06T23:12:28.011Z,82.30
2023-05-06T23:14:30.781Z,82.50
2023-05-06T23:16:33.931Z,82.60
2023-05-06T23:18:36.990Z,82.50
2023-05-06T23:20:42.208Z,82.60
2023-05-06T23:22:45.048Z,82.70
2023-05-06T23:24:47.753Z,82.90
2023-05-06T23:26:50.581Z,82.70
2023-05-06T23:28:53.343Z,82.80
2023-05-06T23:30:56.157Z,82.80
2023-05-06T23:32:59.036Z,82.90
2023-05-06T23:35:02.835Z,82.50
2023-05-06T23:37:07.039Z,82.50
2023-05-06T23:39:12.220Z,82.60
2023-05-06T23:41:15.148Z,82.70
2023-05-06T23:43:17.917Z,82.80
2023-05-06T23:45:21.059Z,82.70
2023-05-06T23:47:24.428Z,82.90
2023-05-06T23:49:27.302Z,83.00
2023-05-06T23:51:30.081Z,82.90
2023-05-06T23:53:36.026Z,82.70
2023-05-06T23:55:39.062Z,82.80
2023-05-06T23:57:41.867Z,83.00
2023-05-06T23:59:44.656Z,82.90
